createdAt,value
2022-09-03T00:06:12.906Z,2.30
2022-09-03T00:12:43.017Z,1.70
2022-09-03T00:19:10.090Z,2.10
2022-09-03T00:25:34.582Z,1.90
2022-09-03T00:32:10.985Z,1.90
2022-09-03T00:38:35.507Z,1.80
2022-09-03T00:45:05.517Z,2.30
2022-09-03T00:51:36.089Z,2.20
2022-09-03T00:58:00.649Z,2.20
2022-09-03T01:04:37.747Z,2.10
2022-09-03T01:11:10.079Z,2.60
2022-09-03T01:17:43.929Z,2.40
2022-09-03T01:24:11.176Z,2.40
2022-09-03T01:30:38.119Z,2.30
2022-09-03T01:37:11.659Z,2.40
2022-09-03T01:43:43.360Z,2.20
2022-09-03T01:50:21.942Z,2.40
2022-09-03T01:56:49.136Z,2.20
2022-09-03T02:03:22.374Z,2.60
2022-09-03T02:09:46.758Z,2.40
2022-09-03T02:16:11.059Z,2.50
2022-09-03T02:22:35.384Z,2.20
2022-09-03T02:28:59.689Z,2.30
2022-09-03T02:35:23.990Z,2.40
2022-09-03T02:41:48.333Z,2.40
2022-09-03T02:48:12.657Z,2.50
2022-09-03T02:54:36.934Z,2.50
2022-09-03T03:01:01.303Z,2.60
2022-09-03T03:07:25.683Z,2.50
2022-09-03T03:13:49.962Z,2.30
2022-09-03T03:20:14.296Z,2.40
2022-09-03T03:26:41.592Z,2.60
2022-09-03T03:33:05.869Z,2.40
2022-09-03T03:39:30.304Z,2.30
2022-09-03T03:45:54.882Z,2.60
2022-09-03T03:52:19.248Z,2.50
2022-09-03T03:58:43.637Z,2.50
2022-09-03T04:05:07.935Z,2.30
2022-09-03T04:11:32.732Z,2.40
2022-09-03T04:17:57.068Z,2.30
2022-09-03T04:24:21.373Z,1.70
2022-09-03T04:30:49.227Z,2.10
2022-09-03T04:43:20.292Z,1.90
2022-09-03T04:49:44.623Z,1.80
2022-09-03T04:56:09.241Z,2.00
2022-09-03T05:02:33.596Z,2.10
2022-09-03T05:09:00.614Z,1.80
2022-09-03T05:15:24.913Z,1.90
2022-09-03T05:21:49.231Z,1.80
2022-09-03T05:28:14.814Z,1.90
2022-09-03T05:34:39.013Z,1.80
2022-09-03T05:41:03.375Z,1.70
2022-09-03T05:47:27.746Z,2.00
2022-09-03T05:53:52.114Z,1.90
2022-09-03T06:00:16.428Z,1.80
2022-09-03T06:06:40.667Z,1.90
2022-09-03T06:13:05.017Z,2.10
2022-09-03T06:19:29.557Z,2.00
2022-09-03T06:25:53.985Z,1.60
2022-09-03T06:32:18.280Z,1.70
2022-09-03T06:38:42.636Z,1.50
2022-09-03T06:45:07.025Z,1.70
2022-09-03T06:51:36.451Z,1.60
2022-09-03T06:58:00.686Z,1.70
2022-09-03T07:04:25.405Z,1.60
2022-09-03T07:10:49.804Z,1.70
2022-09-03T07:17:14.013Z,1.50
2022-09-03T07:23:31.046Z,1.50
2022-09-03T07:29:55.318Z,1.60
2022-09-03T07:36:20.470Z,2.10
2022-09-03T07:42:44.933Z,1.80
2022-09-03T07:49:09.743Z,2.00
2022-09-03T07:55:27.051Z,1.60
2022-09-03T08:01:51.396Z,1.60
2022-09-03T08:08:16.492Z,1.50
2022-09-03T08:14:43.462Z,1.40
2022-09-03T08:21:07.887Z,1.90
2022-09-03T08:27:32.209Z,1.30
2022-09-03T08:33:59.508Z,1.40
2022-09-03T08:40:23.814Z,1.70
2022-09-03T08:46:48.206Z,1.50
2022-09-03T08:53:21.440Z,1.50
2022-09-03T08:59:45.744Z,1.50
2022-09-03T09:06:25.023Z,1.20
2022-09-03T09:13:01.266Z,1.50
2022-09-03T09:19:42.419Z,1.60
2022-09-03T09:26:11.168Z,1.10
2022-09-03T09:32:36.095Z,0.80
2022-09-03T09:39:09.592Z,0.80
2022-09-03T09:45:33.847Z,1.00
2022-09-03T09:52:09.983Z,0.70
2022-09-03T09:58:34.541Z,0.80
2022-09-03T10:04:53.136Z,0.90
2022-09-03T10:11:18.886Z,0.80
2022-09-03T10:17:55.021Z,0.80
2022-09-03T10:24:31.102Z,1.10
2022-09-03T10:30:55.440Z,1.10
2022-09-03T10:37:44.315Z,0.90
2022-09-03T10:44:30.150Z,0.80
2022-09-03T10:51:00.364Z,0.70
2022-09-03T10:57:52.068Z,0.90
2022-09-03T11:04:37.900Z,0.70
2022-09-03T11:11:02.748Z,1.80
2022-09-03T11:17:30.219Z,1.00
2022-09-03T11:23:59.660Z,0.90
2022-09-03T11:30:29.717Z,0.80
2022-09-03T11:37:12.381Z,0.80
2022-09-03T11:43:36.771Z,0.60
2022-09-03T11:50:10.341Z,0.80
2022-09-03T11:56:40.251Z,0.70
2022-09-03T12:03:10.916Z,0.40
2022-09-03T12:09:36.592Z,0.80
2022-09-03T12:16:02.644Z,1.20
2022-09-03T12:22:26.982Z,0.70
2022-09-03T12:28:51.907Z,0.60
2022-09-03T12:35:58.273Z,0.80
2022-09-03T12:42:00.713Z,0.70
2022-09-03T12:48:25.123Z,0.70
2022-09-03T12:54:50.262Z,0.70
2022-09-03T13:01:15.303Z,0.50
2022-09-03T13:07:44.762Z,0.80
2022-09-03T13:14:12.734Z,0.60
2022-09-03T13:20:42.956Z,0.50
2022-09-03T13:27:10.381Z,0.60
2022-09-03T13:33:44.015Z,0.50
2022-09-03T13:40:11.601Z,0.40
2022-09-03T13:46:47.725Z,0.60
2022-09-03T13:53:24.027Z,0.60
2022-09-03T13:59:53.651Z,0.80
2022-09-03T14:06:30.021Z,0.60
2022-09-03T14:13:00.139Z,0.70
2022-09-03T14:19:39.532Z,0.50
2022-09-03T14:26:03.834Z,0.70
2022-09-03T14:32:43.001Z,0.60
2022-09-03T14:39:08.356Z,0.70
2022-09-03T14:45:39.336Z,0.70
2022-09-03T14:52:03.918Z,0.70
2022-09-03T14:58:35.684Z,0.80
2022-09-03T15:05:13.925Z,0.70
2022-09-03T15:11:40.850Z,1.00
2022-09-03T15:18:23.636Z,0.70
2022-09-03T15:24:46.874Z,0.80
2022-09-03T15:31:13.851Z,0.70
2022-09-03T15:37:41.497Z,0.70
2022-09-03T15:44:07.104Z,0.90
2022-09-03T15:50:33.891Z,0.70
2022-09-03T15:57:09.463Z,0.90
2022-09-03T16:03:36.821Z,1.20
2022-09-03T16:10:23.902Z,0.80
2022-09-03T16:16:54.533Z,0.60
2022-09-03T16:23:18.863Z,1.00
2022-09-03T16:29:55.006Z,0.80
2022-09-03T16:36:25.208Z,0.80
2022-09-03T16:43:07.314Z,1.40
2022-09-03T16:49:53.488Z,1.00
2022-09-03T16:56:33.029Z,1.30
2022-09-03T17:02:57.328Z,1.10
2022-09-03T17:09:33.763Z,1.10
2022-09-03T17:16:24.679Z,1.00
2022-09-03T17:23:07.828Z,1.20
2022-09-03T17:29:44.376Z,1.40
2022-09-03T17:36:17.452Z,1.20
2022-09-03T17:42:47.933Z,1.40
2022-09-03T17:49:18.098Z,1.40
2022-09-03T17:55:32.622Z,1.70
2022-09-03T18:01:56.428Z,1.60
2022-09-03T18:08:26.548Z,1.80
2022-09-03T18:14:52.383Z,1.50
2022-09-03T18:21:25.485Z,2.10
2022-09-03T18:27:55.230Z,2.20
2022-09-03T18:34:18.101Z,2.20
2022-09-03T18:40:41.688Z,2.30
2022-09-03T18:48:01.533Z,2.60
2022-09-03T18:54:19.583Z,2.20
2022-09-03T19:00:57.304Z,2.50
2022-09-03T19:07:22.663Z,2.70
2022-09-03T19:13:52.376Z,2.10
2022-09-03T19:20:30.185Z,2.10
2022-09-03T19:26:52.834Z,2.10
2022-09-03T19:33:17.193Z,1.90
2022-09-03T19:39:39.020Z,1.90
2022-09-03T19:46:01.750Z,1.80
2022-09-03T19:52:42.600Z,1.80
2022-09-03T19:59:05.215Z,2.10
2022-09-03T20:05:31.038Z,1.80
2022-09-03T20:11:57.964Z,2.50
2022-09-03T20:18:37.617Z,2.40
2022-09-03T20:25:13.742Z,2.20
2022-09-03T20:31:50.105Z,2.10
2022-09-03T20:38:51.517Z,2.30
2022-09-03T20:45:34.443Z,2.50
2022-09-03T20:52:07.713Z,2.50
2022-09-03T20:58:33.305Z,2.50
2022-09-03T21:05:15.755Z,2.30
2022-09-03T21:11:49.069Z,2.60
2022-09-03T21:18:22.438Z,2.60
2022-09-03T21:24:53.157Z,2.60
2022-09-03T21:31:17.693Z,2.90
2022-09-03T21:37:42.056Z,3.00
2022-09-03T21:44:09.550Z,2.70
2022-09-03T21:50:33.868Z,3.30
2022-09-03T21:57:01.415Z,2.70
2022-09-03T22:03:28.719Z,2.90
2022-09-03T22:09:53.136Z,2.70
2022-09-03T22:16:17.501Z,2.90
2022-09-03T22:22:53.971Z,2.70
2022-09-03T22:29:27.372Z,2.60
2022-09-03T22:35:54.765Z,2.40
2022-09-03T22:42:49.604Z,2.50
2022-09-03T22:49:20.250Z,3.00
2022-09-03T22:55:59.905Z,2.70
2022-09-03T23:02:30.124Z,2.80
2022-09-03T23:09:18.532Z,3.10
2022-09-03T23:22:01.637Z,3.10
2022-09-03T23:28:28.922Z,2.80
2022-09-03T23:34:53.178Z,2.90
2022-09-03T23:41:34.312Z,2.80
2022-09-03T23:54:13.086Z,3.00
